createdAt,value
2018-03-02T00:02:21.376Z,-5.70
2018-03-02T00:04:49.029Z,-5.68
2018-03-02T00:07:16.623Z,-5.69
2018-03-02T00:09:45.178Z,-5.66
2018-03-02T00:12:16.066Z,-5.68
2018-03-02T00:14:43.647Z,-5.72
2018-03-02T00:17:11.349Z,-5.74
2018-03-02T00:19:38.925Z,-5.77
2018-03-02T00:22:06.494Z,-5.77
2018-03-02T00:24:34.123Z,-5.74
2018-03-02T00:27:01.716Z,-5.75
2018-03-02T00:29:29.297Z,-5.75
2018-03-02T00:32:01.812Z,-5.74
2018-03-02T00:34:29.625Z,-5.77
2018-03-02T00:36:57.275Z,-5.79
2018-03-02T00:39:24.894Z,-5.86
2018-03-02T00:41:52.478Z,-5.86
2018-03-02T00:44:20.070Z,-5.90
2018-03-02T00:46:47.671Z,-5.95
2018-03-02T00:49:15.385Z,-5.96
2018-03-02T00:51:42.982Z,-5.97
2018-03-02T00:54:10.805Z,-5.96
2018-03-02T00:56:38.418Z,-5.94
2018-03-02T00:59:06.021Z,-6.03
2018-03-02T01:01:33.636Z,-6.01
2018-03-02T01:04:01.272Z,-6.06
2018-03-02T01:06:28.898Z,-6.07
2018-03-02T01:08:56.509Z,-6.08
2018-03-02T01:11:24.210Z,-6.02
2018-03-02T01:13:51.780Z,-5.99
2018-03-02T01:16:19.444Z,-6.06
2018-03-02T01:18:47.079Z,-6.15
2018-03-02T01:21:14.649Z,-6.13
2018-03-02T01:23:42.716Z,-6.13
2018-03-02T01:26:10.412Z,-6.11
2018-03-02T01:28:38.007Z,-6.14
2018-03-02T01:31:05.703Z,-6.15
2018-03-02T01:33:33.428Z,-6.15
2018-03-02T01:36:01.387Z,-6.20
2018-03-02T01:38:29.071Z,-6.21
2018-03-02T01:40:57.330Z,-6.18
2018-03-02T01:43:25.044Z,-6.23
2018-03-02T01:45:52.762Z,-6.23
2018-03-02T01:48:20.414Z,-6.23
2018-03-02T01:50:48.006Z,-6.27
2018-03-02T01:53:15.569Z,-6.23
2018-03-02T01:55:43.506Z,-6.30
2018-03-02T01:58:11.073Z,-6.32
2018-03-02T02:00:38.645Z,-6.34
2018-03-02T02:03:06.270Z,-6.38
2018-03-02T02:05:34.295Z,-6.40
2018-03-02T02:08:02.324Z,-6.36
2018-03-02T02:10:29.937Z,-6.40
2018-03-02T02:12:57.524Z,-6.37
2018-03-02T02:15:25.103Z,-6.39
2018-03-02T02:17:53.028Z,-6.38
2018-03-02T02:20:20.728Z,-6.45
2018-03-02T02:22:48.341Z,-6.46
2018-03-02T02:25:15.928Z,-6.38
2018-03-02T02:27:43.563Z,-6.48
2018-03-02T02:30:11.365Z,-6.49
2018-03-02T02:32:38.967Z,-6.46
2018-03-02T02:35:06.918Z,-6.51
2018-03-02T02:37:34.561Z,-6.49
2018-03-02T02:40:02.387Z,-6.47
2018-03-02T02:42:30.063Z,-6.55
2018-03-02T02:44:57.663Z,-6.61
2018-03-02T02:47:25.239Z,-6.55
2018-03-02T02:49:52.941Z,-6.61
2018-03-02T02:52:20.498Z,-6.54
2018-03-02T02:54:48.046Z,-6.62
2018-03-02T02:57:15.749Z,-6.61
2018-03-02T02:59:43.384Z,-6.60
2018-03-02T03:02:10.983Z,-6.61
2018-03-02T03:04:38.620Z,-6.57
2018-03-02T03:07:06.215Z,-6.56
2018-03-02T03:09:33.812Z,-6.63
2018-03-02T03:12:01.508Z,-6.67
2018-03-02T03:14:29.106Z,-6.64
2018-03-02T03:16:56.676Z,-6.70
2018-03-02T03:19:24.301Z,-6.77
2018-03-02T03:21:51.906Z,-6.77
2018-03-02T03:24:19.488Z,-6.78
2018-03-02T03:26:47.111Z,-6.78
2018-03-02T03:29:14.812Z,-6.86
2018-03-02T03:31:42.383Z,-6.82
2018-03-02T03:34:10.008Z,-6.86
2018-03-02T03:36:37.585Z,-6.84
2018-03-02T03:39:05.255Z,-6.81
2018-03-02T03:41:32.883Z,-6.78
2018-03-02T03:44:00.446Z,-6.80
2018-03-02T03:46:28.061Z,-6.82
2018-03-02T03:48:55.634Z,-6.85
2018-03-02T03:51:23.296Z,-6.92
2018-03-02T03:53:50.918Z,-6.99
2018-03-02T03:56:18.738Z,-6.96
2018-03-02T03:58:46.325Z,-6.94
2018-03-02T04:01:14.175Z,-6.91
2018-03-02T04:03:41.766Z,-6.91
2018-03-02T04:06:09.395Z,-6.94
2018-03-02T04:08:36.984Z,-6.97
2018-03-02T04:11:04.573Z,-7.01
2018-03-02T04:13:32.209Z,-7.02
2018-03-02T04:15:59.796Z,-7.06
2018-03-02T04:18:27.663Z,-7.12
2018-03-02T04:20:55.276Z,-7.14
2018-03-02T04:23:22.953Z,-7.19
2018-03-02T04:25:50.563Z,-7.11
2018-03-02T04:28:18.184Z,-7.14
2018-03-02T04:30:45.824Z,-7.15
2018-03-02T04:33:13.418Z,-7.14
2018-03-02T04:35:41.000Z,-7.21
2018-03-02T04:38:08.658Z,-7.21
2018-03-02T04:40:36.265Z,-7.22
2018-03-02T04:43:04.088Z,-7.23
2018-03-02T04:45:31.693Z,-7.31
2018-03-02T04:47:59.552Z,-7.27
2018-03-02T04:50:27.176Z,-7.30
2018-03-02T04:52:54.860Z,-7.32
2018-03-02T04:55:22.617Z,-7.37
2018-03-02T04:57:50.190Z,-7.35
2018-03-02T05:00:17.751Z,-7.37
2018-03-02T05:02:45.376Z,-7.41
2018-03-02T05:05:13.118Z,-7.47
2018-03-02T05:07:40.719Z,-7.46
2018-03-02T05:10:08.338Z,-7.44
2018-03-02T05:12:35.920Z,-7.48
2018-03-02T05:15:03.509Z,-7.51
2018-03-02T05:17:31.104Z,-7.58
2018-03-02T05:19:58.741Z,-7.61
2018-03-02T05:22:26.311Z,-7.54
2018-03-02T05:24:54.249Z,-7.53
2018-03-02T05:27:23.019Z,-7.62
2018-03-02T05:29:50.593Z,-7.65
2018-03-02T05:32:18.188Z,-7.58
2018-03-02T05:34:45.982Z,-7.62
2018-03-02T05:37:13.619Z,-7.75
2018-03-02T05:39:41.187Z,-7.69
2018-03-02T05:42:08.820Z,-7.73
2018-03-02T05:44:36.454Z,-7.78
2018-03-02T05:47:04.052Z,-7.78
2018-03-02T05:49:31.620Z,-7.83
2018-03-02T05:51:59.507Z,-7.87
2018-03-02T05:54:27.118Z,-7.79
2018-03-02T05:56:54.681Z,-7.78
2018-03-02T05:59:22.303Z,-7.79
2018-03-02T06:01:50.121Z,-7.85
2018-03-02T06:04:17.697Z,-7.91
2018-03-02T06:06:45.329Z,-7.86
2018-03-02T06:09:12.967Z,-7.85
2018-03-02T06:11:40.563Z,-7.86
2018-03-02T06:14:08.186Z,-7.85
2018-03-02T06:16:35.774Z,-7.86
2018-03-02T06:19:04.250Z,-7.81
2018-03-02T06:21:31.965Z,-7.82
2018-03-02T06:23:59.625Z,-7.87
2018-03-02T06:26:27.238Z,-7.91
2018-03-02T06:28:54.831Z,-7.85
2018-03-02T06:31:22.659Z,-7.88
2018-03-02T06:33:50.251Z,-7.86
2018-03-02T06:36:17.843Z,-7.87
2018-03-02T06:38:45.436Z,-7.80
2018-03-02T06:41:13.082Z,-7.87
2018-03-02T06:43:40.680Z,-7.82
2018-03-02T06:46:08.245Z,-7.80
2018-03-02T06:48:35.867Z,-7.81
2018-03-02T06:51:03.443Z,-7.82
2018-03-02T06:53:31.004Z,-7.75
2018-03-02T06:55:58.878Z,-7.76
2018-03-02T06:58:26.506Z,-7.75
2018-03-02T07:00:54.159Z,-7.74
2018-03-02T07:03:21.777Z,-7.71
2018-03-02T07:05:49.344Z,-7.67
2018-03-02T07:08:17.056Z,-7.64
2018-03-02T07:10:44.710Z,-7.64
2018-03-02T07:13:12.272Z,-7.68
2018-03-02T07:15:39.860Z,-7.62
2018-03-02T07:18:07.516Z,-7.57
2018-03-02T07:20:35.078Z,-7.51
2018-03-02T07:23:02.970Z,-7.45
2018-03-02T07:25:30.597Z,-7.41
2018-03-02T07:27:58.167Z,-7.36
2018-03-02T07:30:25.753Z,-7.35
2018-03-02T07:32:53.363Z,-7.31
2018-03-02T07:35:20.943Z,-7.24
2018-03-02T07:37:48.540Z,-7.20
2018-03-02T07:40:16.190Z,-7.17
2018-03-02T07:42:43.767Z,-7.17
2018-03-02T07:45:11.317Z,-7.08
2018-03-02T07:47:38.901Z,-7.12
2018-03-02T07:50:06.485Z,-7.10
2018-03-02T07:52:34.154Z,-7.08
2018-03-02T07:55:01.847Z,-7.01
2018-03-02T07:57:29.706Z,-7.06
2018-03-02T07:59:57.517Z,-7.00
2018-03-02T08:02:25.126Z,-6.94
2018-03-02T08:04:52.717Z,-6.91
2018-03-02T08:07:20.309Z,-6.84
2018-03-02T08:09:48.009Z,-6.78
2018-03-02T08:12:15.619Z,-6.74
2018-03-02T08:14:43.218Z,-6.70
2018-03-02T08:17:10.910Z,-6.65
2018-03-02T08:19:38.470Z,-6.60
2018-03-02T08:22:06.042Z,-6.50
2018-03-02T08:24:33.671Z,-6.56
2018-03-02T08:27:01.503Z,-6.52
2018-03-02T08:29:29.145Z,-6.47
2018-03-02T08:31:56.847Z,-6.38
2018-03-02T08:34:24.662Z,-6.31
2018-03-02T08:36:52.259Z,-6.24
2018-03-02T08:39:19.860Z,-6.11
2018-03-02T08:41:47.424Z,-6.15
2018-03-02T08:44:15.050Z,-6.06
2018-03-02T08:46:42.661Z,-5.97
2018-03-02T08:49:10.271Z,-5.87
2018-03-02T08:51:37.863Z,-5.77
2018-03-02T08:54:05.557Z,-5.68
2018-03-02T08:56:33.164Z,-5.68
2018-03-02T08:59:00.732Z,-5.63
2018-03-02T09:01:28.363Z,-5.59
2018-03-02T09:03:55.924Z,-5.55
2018-03-02T09:06:23.493Z,-5.51
2018-03-02T09:08:51.133Z,-5.47
2018-03-02T09:11:18.714Z,-5.36
2018-03-02T09:13:46.284Z,-5.30
2018-03-02T09:16:13.956Z,-5.24
2018-03-02T09:18:41.566Z,-5.33
2018-03-02T09:21:09.202Z,-5.21
2018-03-02T09:23:36.832Z,-5.13
2018-03-02T09:26:04.447Z,-5.02
2018-03-02T09:28:32.046Z,-4.90
2018-03-02T09:31:00.779Z,-4.81
2018-03-02T09:33:28.442Z,-4.76
2018-03-02T09:35:56.035Z,-4.78
2018-03-02T09:38:23.688Z,-4.74
2018-03-02T09:40:51.417Z,-4.63
2018-03-02T09:43:21.157Z,-4.52
2018-03-02T09:45:49.015Z,-4.44
2018-03-02T09:48:16.626Z,-4.34
2018-03-02T09:50:44.661Z,-4.23
2018-03-02T09:53:12.246Z,-4.16
2018-03-02T09:55:39.896Z,-4.10
2018-03-02T09:58:07.454Z,-4.00
2018-03-02T10:00:35.032Z,-3.88
2018-03-02T10:03:02.962Z,-3.85
2018-03-02T10:05:30.529Z,-3.92
2018-03-02T10:07:58.087Z,-4.03
2018-03-02T10:10:25.720Z,-3.93
2018-03-02T10:12:53.530Z,-3.82
2018-03-02T10:15:21.183Z,-3.71
2018-03-02T10:17:48.777Z,-3.58
2018-03-02T10:20:16.372Z,-3.56
2018-03-02T10:22:44.357Z,-3.42
2018-03-02T10:25:11.993Z,-3.30
2018-03-02T10:27:39.650Z,-3.11
2018-03-02T10:30:07.271Z,-2.97
2018-03-02T10:32:34.852Z,-2.94
2018-03-02T10:35:02.677Z,-2.80
2018-03-02T10:37:30.284Z,-2.84
2018-03-02T10:39:57.882Z,-2.78
2018-03-02T10:42:25.532Z,-2.58
2018-03-02T10:44:53.119Z,-2.31
2018-03-02T10:47:20.988Z,-2.41
2018-03-02T10:49:48.684Z,-2.32
2018-03-02T10:52:16.298Z,-2.31
2018-03-02T10:54:43.922Z,-2.14
2018-03-02T10:57:11.566Z,-1.94
2018-03-02T10:59:39.440Z,-1.99
2018-03-02T11:02:07.198Z,-1.80
2018-03-02T11:04:36.684Z,-1.51
2018-03-02T11:07:04.269Z,-1.31
2018-03-02T11:09:32.171Z,-1.12
2018-03-02T11:11:59.759Z,-1.03
2018-03-02T11:14:27.368Z,-1.31
2018-03-02T11:16:55.029Z,-1.01
2018-03-02T11:19:22.679Z,-0.80
2018-03-02T11:21:50.413Z,-0.60
2018-03-02T11:24:18.057Z,-0.75
2018-03-02T11:26:45.620Z,-0.76
2018-03-02T11:29:13.198Z,-0.63
2018-03-02T11:31:41.099Z,-0.70
2018-03-02T11:34:08.681Z,-0.64
2018-03-02T11:36:36.344Z,-0.70
2018-03-02T11:39:03.999Z,-0.64
2018-03-02T11:41:31.635Z,-0.52
2018-03-02T11:43:59.347Z,-0.33
2018-03-02T11:46:26.945Z,-0.42
2018-03-02T11:48:54.572Z,-0.50
2018-03-02T11:51:22.254Z,-0.55
2018-03-02T11:53:49.920Z,-0.57
2018-03-02T11:56:17.547Z,-0.46
2018-03-02T11:58:45.362Z,-0.38
2018-03-02T12:01:12.971Z,-0.47
2018-03-02T12:03:40.686Z,-0.54
2018-03-02T12:06:08.335Z,-0.28
2018-03-02T12:08:35.925Z,-0.31
2018-03-02T12:11:03.632Z,-0.31
2018-03-02T12:13:31.227Z,-0.18
2018-03-02T12:15:58.820Z,-0.15
2018-03-02T12:18:26.493Z,0.01
2018-03-02T12:20:54.080Z,0.27
2018-03-02T12:23:21.910Z,0.37
2018-03-02T12:25:49.555Z,0.35
2018-03-02T12:28:17.163Z,0.56
2018-03-02T12:30:45.155Z,0.65
2018-03-02T12:33:12.821Z,0.55
2018-03-02T12:35:40.491Z,0.36
2018-03-02T12:38:08.069Z,0.17
2018-03-02T12:40:35.742Z,0.27
2018-03-02T12:43:03.428Z,0.32
2018-03-02T12:45:31.332Z,0.34
2018-03-02T12:47:58.989Z,0.28
2018-03-02T12:50:26.635Z,0.27
2018-03-02T12:52:54.225Z,0.34
2018-03-02T12:55:21.783Z,0.33
2018-03-02T12:57:49.445Z,0.40
2018-03-02T13:00:17.307Z,0.23
2018-03-02T13:02:44.931Z,0.39
2018-03-02T13:05:12.580Z,0.47
2018-03-02T13:07:40.200Z,0.57
2018-03-02T13:10:07.796Z,0.75
2018-03-02T13:12:35.724Z,0.92
2018-03-02T13:15:03.587Z,1.01
2018-03-02T13:17:31.239Z,1.10
2018-03-02T13:19:58.877Z,0.99
2018-03-02T13:22:38.303Z,0.98
2018-03-02T13:25:06.017Z,0.70
2018-03-02T13:27:45.341Z,0.88
2018-03-02T13:30:13.371Z,0.70
2018-03-02T13:32:41.002Z,0.65
2018-03-02T13:35:11.492Z,0.69
2018-03-02T13:37:39.122Z,0.62
2018-03-02T13:40:18.438Z,0.57
2018-03-02T13:42:46.093Z,0.61
2018-03-02T13:45:13.691Z,0.75
2018-03-02T13:50:58.175Z,0.71
2018-03-02T13:53:25.870Z,0.73
2018-03-02T13:55:57.178Z,0.75
2018-03-02T13:58:26.750Z,0.78
2018-03-02T14:00:54.359Z,0.72
2018-03-02T14:03:33.810Z,0.83
2018-03-02T14:06:01.380Z,0.71
2018-03-02T14:08:29.000Z,0.68
2018-03-02T14:10:56.782Z,0.88
2018-03-02T14:13:24.389Z,1.04
2018-03-02T14:15:52.011Z,0.96
2018-03-02T14:18:19.683Z,1.17
2018-03-02T14:20:47.578Z,0.91
2018-03-02T14:23:15.203Z,0.96
2018-03-02T14:25:42.945Z,0.92
2018-03-02T14:28:10.610Z,1.05
2018-03-02T14:30:38.240Z,1.13
2018-03-02T14:33:05.885Z,1.25
2018-03-02T14:35:33.495Z,1.46
2018-03-02T14:38:01.203Z,1.67
2018-03-02T14:40:28.822Z,1.69
2018-03-02T14:42:56.407Z,1.56
2018-03-02T14:45:24.260Z,1.66
2018-03-02T14:47:51.830Z,1.76
2018-03-02T14:50:19.483Z,1.72
2018-03-02T14:52:47.052Z,1.49
2018-03-02T14:55:14.662Z,1.30
2018-03-02T14:57:42.285Z,1.30
2018-03-02T15:00:09.858Z,1.10
2018-03-02T15:02:37.429Z,1.08
2018-03-02T15:05:05.053Z,1.00
2018-03-02T15:07:32.666Z,1.06
2018-03-02T15:10:00.241Z,0.97
2018-03-02T15:12:27.999Z,0.98
2018-03-02T15:14:55.549Z,0.82
2018-03-02T15:17:23.127Z,0.65
2018-03-02T15:19:50.768Z,0.49
2018-03-02T15:22:18.355Z,0.39
2018-03-02T15:24:45.989Z,0.33
2018-03-02T15:27:13.575Z,0.20
2018-03-02T15:29:41.168Z,0.21
2018-03-02T15:32:08.816Z,0.16
2018-03-02T15:34:36.480Z,0.11
2018-03-02T15:37:04.079Z,0.01
2018-03-02T15:39:31.688Z,0.03
2018-03-02T15:41:59.299Z,0.00
2018-03-02T15:44:26.878Z,-0.10
2018-03-02T15:46:54.826Z,-0.14
2018-03-02T15:49:22.466Z,-0.20
2018-03-02T15:51:50.094Z,-0.26
2018-03-02T15:54:17.665Z,-0.34
2018-03-02T15:56:45.221Z,-0.35
2018-03-02T15:59:12.824Z,-0.39
2018-03-02T16:01:40.384Z,-0.36
2018-03-02T16:04:07.978Z,-0.36
2018-03-02T16:06:35.578Z,-0.40
2018-03-02T16:09:03.456Z,-0.40
2018-03-02T16:11:31.346Z,-0.52
2018-03-02T16:13:58.932Z,-0.54
2018-03-02T16:16:26.538Z,-0.60
2018-03-02T16:18:54.221Z,-0.64
2018-03-02T16:21:21.813Z,-0.81
2018-03-02T16:23:49.459Z,-0.79
2018-03-02T16:26:17.042Z,-0.82
2018-03-02T16:28:44.625Z,-0.85
2018-03-02T16:31:12.256Z,-0.86
2018-03-02T16:33:39.832Z,-0.89
2018-03-02T16:36:07.427Z,-0.95
2018-03-02T16:38:35.053Z,-1.00
2018-03-02T16:41:02.633Z,-1.06
2018-03-02T16:43:30.287Z,-1.10
2018-03-02T16:45:58.116Z,-1.19
2018-03-02T16:48:25.756Z,-1.13
2018-03-02T16:50:53.490Z,-1.23
2018-03-02T16:53:21.095Z,-1.26
2018-03-02T16:55:48.689Z,-1.32
2018-03-02T16:58:16.260Z,-1.32
2018-03-02T17:00:43.875Z,-1.38
2018-03-02T17:03:11.759Z,-1.39
2018-03-02T17:05:39.632Z,-1.48
2018-03-02T17:08:07.290Z,-1.48
2018-03-02T17:10:34.887Z,-1.46
2018-03-02T17:13:02.471Z,-1.45
2018-03-02T17:15:30.131Z,-1.54
2018-03-02T17:17:57.790Z,-1.56
2018-03-02T17:20:25.353Z,-1.61
2018-03-02T17:22:52.923Z,-1.65
2018-03-02T17:25:20.540Z,-1.71
2018-03-02T17:27:48.351Z,-1.80
2018-03-02T17:30:15.987Z,-1.82
2018-03-02T17:32:43.614Z,-1.91
2018-03-02T17:35:11.178Z,-1.88
2018-03-02T17:37:38.811Z,-1.96
2018-03-02T17:40:06.449Z,-2.08
2018-03-02T17:42:34.028Z,-2.02
2018-03-02T17:45:01.656Z,-2.02
2018-03-02T17:47:29.225Z,-2.13
2018-03-02T17:49:56.801Z,-2.15
2018-03-02T17:52:24.462Z,-2.20
2018-03-02T17:54:52.147Z,-2.30
2018-03-02T17:57:19.720Z,-2.26
2018-03-02T17:59:47.273Z,-2.26
2018-03-02T18:02:15.097Z,-2.29
2018-03-02T18:04:42.981Z,-2.33
2018-03-02T18:07:10.598Z,-2.36
2018-03-02T18:09:38.235Z,-2.42
2018-03-02T18:12:05.822Z,-2.43
2018-03-02T18:14:33.420Z,-2.48
2018-03-02T18:17:01.402Z,-2.54
2018-03-02T18:19:29.072Z,-2.53
2018-03-02T18:21:56.653Z,-2.55
2018-03-02T18:24:24.286Z,-2.67
2018-03-02T18:26:51.860Z,-2.68
2018-03-02T18:29:20.258Z,-2.70
2018-03-02T18:31:48.198Z,-2.73
2018-03-02T18:34:15.801Z,-2.79
2018-03-02T18:36:43.355Z,-2.78
2018-03-02T18:39:10.945Z,-2.87
2018-03-02T18:41:38.550Z,-2.90
2018-03-02T18:44:06.183Z,-2.85
2018-03-02T18:46:33.766Z,-2.88
2018-03-02T18:49:01.372Z,-2.93
2018-03-02T18:51:28.992Z,-2.87
2018-03-02T18:53:56.598Z,-2.88
2018-03-02T18:56:24.183Z,-2.94
2018-03-02T18:58:51.813Z,-2.93
2018-03-02T19:01:19.384Z,-2.93
2018-03-02T19:03:47.304Z,-2.97
2018-03-02T19:06:14.940Z,-3.00
2018-03-02T19:08:42.588Z,-3.04
2018-03-02T19:11:10.170Z,-3.05
2018-03-02T19:13:37.906Z,-3.06
2018-03-02T19:16:05.515Z,-3.05
2018-03-02T19:18:33.124Z,-3.08
2018-03-02T19:21:01.015Z,-3.09
2018-03-02T19:23:28.610Z,-3.15
2018-03-02T19:25:56.211Z,-3.22
2018-03-02T19:28:23.911Z,-3.15
2018-03-02T19:30:51.607Z,-3.22
2018-03-02T19:33:19.270Z,-3.27
2018-03-02T19:35:47.005Z,-3.24
2018-03-02T19:38:14.698Z,-3.31
2018-03-02T19:40:42.466Z,-3.36
2018-03-02T19:43:10.250Z,-3.38
2018-03-02T19:45:38.186Z,-3.30
2018-03-02T19:48:06.161Z,-3.37
2018-03-02T19:50:33.882Z,-3.38
2018-03-02T19:53:01.578Z,-3.39
2018-03-02T19:55:29.652Z,-3.39
2018-03-02T19:57:57.387Z,-3.43
2018-03-02T20:00:25.098Z,-3.48
2018-03-02T20:02:52.847Z,-3.48
2018-03-02T20:05:20.504Z,-3.50
2018-03-02T20:07:48.092Z,-3.55
2018-03-02T20:10:15.790Z,-3.54
2018-03-02T20:12:43.474Z,-3.53
2018-03-02T20:15:11.109Z,-3.54
2018-03-02T20:17:38.766Z,-3.62
2018-03-02T20:20:06.488Z,-3.63
2018-03-02T20:22:34.146Z,-3.64
2018-03-02T20:25:01.740Z,-3.71
2018-03-02T20:27:29.671Z,-3.72
2018-03-02T20:29:57.280Z,-3.80
2018-03-02T20:32:24.889Z,-3.77
2018-03-02T20:34:52.852Z,-3.77
2018-03-02T20:37:20.531Z,-3.83
2018-03-02T20:39:48.195Z,-3.87
2018-03-02T20:42:15.791Z,-3.82
2018-03-02T20:44:43.396Z,-3.85
2018-03-02T20:47:10.974Z,-3.85
2018-03-02T20:49:38.834Z,-3.91
2018-03-02T20:52:06.426Z,-3.92
2018-03-02T20:54:34.036Z,-4.00
2018-03-02T20:57:01.637Z,-3.97
2018-03-02T20:59:29.265Z,-3.92
2018-03-02T21:01:57.089Z,-3.99
2018-03-02T21:04:24.681Z,-4.01
2018-03-02T21:06:52.506Z,-4.04
2018-03-02T21:09:20.138Z,-4.05
2018-03-02T21:11:47.997Z,-4.09
2018-03-02T21:14:15.613Z,-4.11
2018-03-02T21:16:43.187Z,-4.17
2018-03-02T21:19:10.787Z,-4.25
2018-03-02T21:21:38.668Z,-4.25
2018-03-02T21:24:06.254Z,-4.19
2018-03-02T21:26:33.831Z,-4.20
2018-03-02T21:29:01.849Z,-4.27
2018-03-02T21:31:29.477Z,-4.28
2018-03-02T21:33:57.068Z,-4.29
2018-03-02T21:36:24.727Z,-4.35
2018-03-02T21:38:52.598Z,-4.34
2018-03-02T21:41:20.182Z,-4.33
2018-03-02T21:43:47.827Z,-4.35
2018-03-02T21:46:15.402Z,-4.39
2018-03-02T21:48:43.040Z,-4.49
2018-03-02T21:51:10.693Z,-4.41
2018-03-02T21:53:38.263Z,-4.38
2018-03-02T21:56:05.962Z,-4.42
2018-03-02T21:58:33.642Z,-4.46
2018-03-02T22:01:01.552Z,-4.48
2018-03-02T22:03:29.207Z,-4.50
2018-03-02T22:05:57.023Z,-4.53
2018-03-02T22:08:24.714Z,-4.47
2018-03-02T22:10:52.611Z,-4.54
2018-03-02T22:13:20.272Z,-4.64
2018-03-02T22:15:47.894Z,-4.60
2018-03-02T22:18:15.532Z,-4.55
2018-03-02T22:20:43.125Z,-4.61
2018-03-02T22:23:10.743Z,-4.63
2018-03-02T22:25:38.400Z,-4.62
2018-03-02T22:28:06.049Z,-4.68
2018-03-02T22:30:33.608Z,-4.64
2018-03-02T22:33:01.165Z,-4.70
2018-03-02T22:35:28.777Z,-4.73
2018-03-02T22:37:56.376Z,-4.79
2018-03-02T22:40:24.022Z,-4.78
2018-03-02T22:42:51.681Z,-4.83
2018-03-02T22:45:19.242Z,-4.86
2018-03-02T22:47:46.811Z,-4.88
2018-03-02T22:50:14.716Z,-4.91
2018-03-02T22:52:42.302Z,-4.86
2018-03-02T22:55:09.900Z,-4.86
2018-03-02T22:57:37.495Z,-4.93
2018-03-02T23:00:05.175Z,-4.88
2018-03-02T23:02:32.796Z,-4.85
2018-03-02T23:05:00.463Z,-4.85
2018-03-02T23:07:28.045Z,-4.90
2018-03-02T23:09:55.692Z,-4.97
2018-03-02T23:12:23.322Z,-4.99
2018-03-02T23:14:57.625Z,-4.95
2018-03-02T23:17:25.242Z,-4.98
2018-03-02T23:19:52.843Z,-5.03
2018-03-02T23:22:21.231Z,-5.01
2018-03-02T23:24:49.369Z,-5.02
2018-03-02T23:27:17.584Z,-5.09
2018-03-02T23:29:45.695Z,-5.14
2018-03-02T23:32:13.680Z,-5.18
2018-03-02T23:34:41.786Z,-5.17
2018-03-02T23:37:09.887Z,-5.22
2018-03-02T23:39:37.744Z,-5.19
2018-03-02T23:42:05.345Z,-5.27
2018-03-02T23:44:32.995Z,-5.18
2018-03-02T23:47:00.563Z,-5.16
2018-03-02T23:49:28.134Z,-5.14
2018-03-02T23:51:55.732Z,-5.20
2018-03-02T23:54:23.558Z,-5.27
2018-03-02T23:56:51.134Z,-5.28
2018-03-02T23:59:18.725Z,-5.34
